Time;durP1;ratioP1;P1;durP2;ratioP2;P2;SDS_P1;SDS_P2;PMS_P1;PMS_P2;Temp;Humidity;BMP_temperature;BMP_pressure;BME280_temperature;BME280_humidity;BME280_pressure;Samples;Min_cycle;Max_cycle;Signal;HPM_P1;HPM_P2
2023/03/01 00:01:51;;;;;;;0.50;0.50;;;;;;;4.38;91.49;97149.06;6158019;23;20022;-62
2023/03/01 00:04:19;;;;;;;0.40;0.40;;;;;;;4.34;91.56;97149.97;6157709;23;20025;-61
2023/03/01 00:06:47;;;;;;;0.50;0.50;;;;;;;4.29;92.59;97132.72;6157843;23;20049;-62
2023/03/01 00:09:16;;;;;;;0.50;0.50;;;;;;;4.27;92.23;97124.06;6157780;23;20017;-62
2023/03/01 00:11:47;;;;;;;0.47;0.47;;;;;;;4.25;92.47;97118.03;6157954;23;20021;-61
2023/03/01 00:14:17;;;;;;;0.50;0.50;;;;;;;4.24;92.64;97103.34;6158269;23;20349;-62
2023/03/01 00:16:47;;;;;;;0.70;0.70;;;;;;;4.17;93.01;97099.06;6157324;23;20018;-62
2023/03/01 00:19:17;;;;;;;2.05;0.60;;;;;;;4.18;93.44;97100.78;6157849;23;20021;-63
2023/03/01 00:21:45;;;;;;;;;;;;;;;4.13;93.32;97093.03;6158120;23;20025;-61
2023/03/01 00:24:14;;;;;;;0.60;0.60;;;;;;;4.12;93.84;97101.69;6157678;23;19923;-62
2023/03/01 00:26:42;;;;;;;0.60;0.60;;;;;;;4.21;94.11;97097.34;6157888;23;20053;-62
2023/03/01 00:29:10;;;;;;;1.75;0.70;;;;;;;4.17;93.49;97096.50;6157908;23;20090;-62
2023/03/01 00:31:40;;;;;;;0.57;0.57;;;;;;;4.19;93.41;97091.31;6157981;23;20067;-62
2023/03/01 00:34:11;;;;;;;0.60;0.60;;;;;;;4.26;93.73;97100.78;6157562;23;20017;-62
2023/03/01 00:36:40;;;;;;;0.60;0.60;;;;;;;4.26;93.19;97093.00;6157616;23;20025;-61
2023/03/01 00:39:13;;;;;;;0.43;0.43;;;;;;;4.26;93.55;97093.88;6157624;23;20057;-61
2023/03/01 00:41:44;;;;;;;0.80;0.80;;;;;;;4.30;93.40;97080.03;6157604;23;20092;-62
2023/03/01 00:44:13;;;;;;;0.50;0.50;;;;;;;4.32;93.29;97080.03;6157498;23;20030;-62
2023/03/01 00:46:42;;;;;;;0.70;0.70;;;;;;;4.34;93.43;97080.91;6157505;23;20064;-62
2023/03/01 00:49:16;;;;;;;0.50;0.50;;;;;;;4.40;93.43;97078.25;6156882;23;20018;-62
2023/03/01 00:51:44;;;;;;;1.30;0.70;;;;;;;4.43;93.23;97075.66;6157532;23;20068;-62
2023/03/01 00:54:13;;;;;;;1.50;0.90;;;;;;;4.49;93.28;97081.69;6157440;23;20025;-62
2023/03/01 00:56:42;;;;;;;0.60;0.60;;;;;;;4.59;92.90;97085.06;6157068;23;20033;-62
2023/03/01 00:59:11;;;;;;;0.65;0.65;;;;;;;4.66;92.23;97087.63;6157606;23;20049;-62
2023/03/01 01:01:39;;;;;;;0.60;0.60;;;;;;;4.73;91.93;97090.19;6157384;23;20036;-62
2023/03/01 01:04:09;;;;;;;0.88;0.60;;;;;;;4.77;91.64;97087.56;6157051;23;20025;-62
2023/03/01 01:06:44;;;;;;;0.50;0.50;;;;;;;4.79;92.02;97082.38;6157514;23;20080;-62
2023/03/01 01:09:18;;;;;;;0.50;0.50;;;;;;;4.89;91.75;97084.03;6157409;23;20018;-62
2023/03/01 01:11:48;;;;;;;0.47;0.47;;;;;;;4.98;91.46;97082.25;6157072;23;20022;-62
2023/03/01 01:14:18;;;;;;;1.88;0.55;;;;;;;4.97;91.26;97078.78;6157456;23;20024;-61
2023/03/01 01:16:47;;;;;;;0.50;0.50;;;;;;;5.00;91.08;97078.75;6157157;23;20079;-62
2023/03/01 01:19:15;;;;;;;0.45;0.45;;;;;;;4.95;90.26;97075.34;6157754;23;20464;-61
2023/03/01 01:21:48;;;;;;;0.40;0.40;;;;;;;4.95;90.09;97077.94;6157232;23;20025;-61
2023/03/01 01:24:16;;;;;;;0.40;0.40;;;;;;;4.88;89.77;97073.69;6157452;23;20022;-62
2023/03/01 01:26:47;;;;;;;0.55;0.55;;;;;;;4.86;89.59;97071.09;6157281;23;20096;-62
2023/03/01 01:29:16;;;;;;;0.65;0.65;;;;;;;4.92;89.61;97067.59;6157104;23;20073;-62
2023/03/01 01:31:46;;;;;;;0.50;0.50;;;;;;;4.91;89.90;97066.72;6157261;23;20022;-63
2023/03/01 01:34:16;;;;;;;0.60;0.60;;;;;;;4.87;89.39;97058.97;6157084;23;20092;-62
2023/03/01 01:36:48;;;;;;;;;;;;;;;4.81;89.43;97057.28;6157530;23;20050;-62
2023/03/01 01:39:18;;;;;;;0.68;0.68;;;;;;;4.73;90.19;97056.50;6157155;23;20004;-61
2023/03/01 01:41:47;;;;;;;0.60;0.60;;;;;;;4.64;90.16;97047.88;6156896;23;20029;-62
2023/03/01 01:44:19;;;;;;;0.60;0.60;;;;;;;4.67;90.34;97053.06;6157421;23;20345;-61
2023/03/01 01:46:51;;;;;;;0.60;0.60;;;;;;;4.73;90.34;97056.50;6156925;23;20348;-62
2023/03/01 01:49:27;;;;;;;0.55;0.55;;;;;;;4.81;90.39;97054.69;6156992;23;20029;-62
2023/03/01 01:52:07;;;;;;;0.60;0.60;;;;;;;4.82;90.27;97045.19;6156804;23;20022;-62
2023/03/01 01:54:43;;;;;;;0.70;0.70;;;;;;;4.76;90.09;97046.94;6156921;23;20018;-62
2023/03/01 01:57:16;;;;;;;0.73;0.73;;;;;;;4.84;90.37;97056.44;6156888;23;20025;-62
2023/03/01 01:59:56;;;;;;;0.50;0.50;;;;;;;4.89;90.36;97060.72;6156818;23;20096;-62
2023/03/01 02:02:25;;;;;;;0.63;0.63;;;;;;;4.96;89.45;97056.31;6157026;23;20092;-61
2023/03/01 02:05:04;;;;;;;0.70;0.70;;;;;;;5.00;89.58;97054.59;6156678;23;20022;-62
2023/03/01 02:07:35;;;;;;;0.60;0.60;;;;;;;4.97;89.37;97055.44;6155896;23;20092;-61
2023/03/01 02:10:05;;;;;;;0.68;0.68;;;;;;;4.98;89.20;97051.13;6156749;23;20452;-62
2023/03/01 02:12:38;;;;;;;0.73;0.73;;;;;;;4.98;89.55;97058.91;6157082;23;20024;-61
2023/03/01 02:15:07;;;;;;;0.60;0.60;;;;;;;4.95;89.14;97064.97;6156307;23;20018;-62
2023/03/01 02:17:36;;;;;;;0.80;0.80;;;;;;;5.00;89.09;97058.00;6156693;23;20021;-62
2023/03/01 02:20:19;;;;;;;0.60;0.60;;;;;;;5.03;89.16;97057.16;6156630;23;20027;-62
2023/03/01 02:22:50;;;;;;;1.05;0.88;;;;;;;5.07;89.37;97053.66;6156747;23;20027;-61
2023/03/01 02:25:40;;;;;;;0.52;0.52;;;;;;;5.11;89.00;97055.34;6156516;23;20025;-62
2023/03/01 02:28:24;;;;;;;0.60;0.60;;;;;;;5.10;88.87;97053.63;6156706;23;20092;-62
2023/03/01 02:33:40;;;;;;;1.15;0.90;;;;;;;5.13;89.00;97060.53;6156875;23;20057;-62
2023/03/01 02:36:13;;;;;;;0.70;0.70;;;;;;;5.09;88.66;97058.84;6156468;23;20096;-62
2023/03/01 02:38:42;;;;;;;0.60;0.60;;;;;;;5.00;88.41;97055.41;6156519;23;20022;-62
2023/03/01 02:41:13;;;;;;;0.70;0.70;;;;;;;4.96;88.35;97056.31;6156815;23;20032;-62
2023/03/01 02:43:44;;;;;;;0.80;0.80;;;;;;;4.91;88.86;97055.50;6156817;23;20022;-62
2023/03/01 02:46:25;;;;;;;0.70;0.70;;;;;;;4.80;89.19;97061.63;6156306;23;20025;-62
2023/03/01 02:48:56;;;;;;;0.60;0.60;;;;;;;4.75;89.21;97052.13;6156267;23;20056;-62
2023/03/01 02:51:46;;;;;;;0.75;0.75;;;;;;;4.76;89.51;97046.09;6156756;23;20065;-62
2023/03/01 02:54:26;;;;;;;1.30;0.73;;;;;;;4.77;89.73;97053.00;6156397;23;20017;-62
2023/03/01 02:56:57;;;;;;;0.63;0.63;;;;;;;4.78;89.82;97047.81;6156204;23;20483;-62
2023/03/01 02:59:43;;;;;;;0.63;0.63;;;;;;;4.70;89.77;97051.31;6156667;23;20021;-61
2023/03/01 03:02:35;;;;;;;0.70;0.70;;;;;;;4.67;90.75;97055.66;6156299;23;20025;-61
2023/03/01 03:05:05;;;;;;;0.60;0.60;;;;;;;4.75;90.63;97049.53;6155997;23;20025;-62
2023/03/01 03:07:35;;;;;;;0.57;0.57;;;;;;;4.58;90.21;97039.31;6156248;23;20017;-62
2023/03/01 03:10:04;;;;;;;0.60;0.60;;;;;;;4.51;90.72;97041.94;6156198;23;20080;-62
2023/03/01 03:12:32;;;;;;;0.93;0.80;;;;;;;4.53;91.59;97034.16;6156234;23;20360;-61
2023/03/01 03:15:08;;;;;;;0.60;0.60;;;;;;;4.47;91.38;97047.13;6156180;23;20025;-62
2023/03/01 03:17:36;;;;;;;0.60;0.60;;;;;;;4.34;91.31;97042.03;6155277;23;20057;-61
2023/03/01 03:20:05;;;;;;;0.60;0.60;;;;;;;4.33;91.93;97045.47;6156188;23;20355;-62
2023/03/01 03:22:33;;;;;;;0.70;0.70;;;;;;;4.30;92.66;97051.53;6156141;23;20021;-62
2023/03/01 03:25:03;;;;;;;0.80;0.80;;;;;;;4.30;92.67;97045.47;6155988;23;20021;-61
2023/03/01 03:27:31;;;;;;;0.73;0.73;;;;;;;4.35;92.63;97048.06;6156709;23;20113;-62
2023/03/01 03:29:59;;;;;;;1.00;0.90;;;;;;;4.30;93.01;97048.06;6155915;23;20032;-62
2023/03/01 03:32:28;;;;;;;2.55;0.75;;;;;;;4.30;93.10;97048.06;6156387;23;20053;-62
2023/03/01 03:34:55;;;;;;;0.65;0.65;;;;;;;4.38;93.17;97051.50;6156545;23;20372;-62
2023/03/01 03:40:15;;;;;;;0.68;0.68;;;;;;;4.37;92.71;97043.75;6156386;23;20413;-63
2023/03/01 03:42:42;;;;;;;0.60;0.60;;;;;;;4.32;93.01;97048.06;6156309;23;20025;-64
2023/03/01 03:45:10;;;;;;;0.55;0.55;;;;;;;4.27;93.51;97041.19;6155975;23;20065;-62
2023/03/01 03:47:57;;;;;;;0.60;0.60;;;;;;;4.31;93.52;97039.47;6156241;23;20017;-64
2023/03/01 03:50:25;;;;;;;0.63;0.63;;;;;;;4.17;93.63;97034.31;6156228;23;20029;-62
2023/03/01 03:52:52;;;;;;;0.63;0.60;;;;;;;4.18;94.21;97033.44;6155847;23;20337;-62
2023/03/01 03:55:20;;;;;;;0.60;0.60;;;;;;;4.18;94.22;97028.28;6156098;23;20026;-64
2023/03/01 03:57:51;;;;;;;1.85;0.60;;;;;;;4.16;94.25;97046.41;6156445;23;20017;-64
2023/03/01 04:00:38;;;;;;;0.50;0.50;;;;;;;4.15;94.24;97038.63;6156254;23;20340;-63
2023/03/01 04:03:08;;;;;;;1.05;0.55;;;;;;;4.12;94.20;97038.69;6156183;23;20029;-63
2023/03/01 04:05:36;;;;;;;0.50;0.50;;;;;;;4.16;94.89;97041.22;6156366;23;20032;-62
2023/03/01 04:08:06;;;;;;;0.43;0.43;;;;;;;4.14;95.06;97039.53;6156494;23;20017;-62
2023/03/01 04:10:36;;;;;;;0.40;0.40;;;;;;;4.20;94.68;97038.63;6155892;23;20022;-63
2023/03/01 04:13:04;;;;;;;0.40;0.40;;;;;;;4.22;95.06;97044.66;6156419;23;20018;-63
2023/03/01 04:15:32;;;;;;;2.13;0.77;;;;;;;4.24;94.68;97042.94;6156025;23;20392;-62
2023/03/01 04:18:01;;;;;;;0.40;0.40;;;;;;;4.35;94.34;97045.47;6155740;23;20026;-63
2023/03/01 04:20:31;;;;;;;0.70;0.40;;;;;;;4.36;94.33;97047.22;6155840;23;20083;-63
2023/03/01 04:23:10;;;;;;;0.43;0.43;;;;;;;4.33;93.44;97058.44;6156540;23;20380;-64
2023/03/01 04:25:40;;;;;;;0.35;0.35;;;;;;;4.32;93.54;97048.06;6156204;23;20032;-64
2023/03/01 04:28:08;;;;;;;0.40;0.40;;;;;;;4.36;93.52;97042.88;6155988;23;20094;-63
2023/03/01 04:30:36;;;;;;;0.40;0.40;;;;;;;4.30;93.34;97038.59;6155833;23;20017;-64
2023/03/01 04:33:05;;;;;;;0.50;0.50;;;;;;;4.33;93.60;97040.28;6155711;23;20021;-64
2023/03/01 04:35:35;;;;;;;0.38;0.38;;;;;;;4.37;93.35;97044.59;6155970;23;20021;-63
2023/03/01 04:38:06;;;;;;;0.40;0.40;;;;;;;4.36;93.25;97045.47;6155914;23;20021;-63
2023/03/01 04:40:35;;;;;;;1.55;0.40;;;;;;;4.38;93.15;97041.13;6157997;23;20244;-62
2023/03/01 04:43:03;;;;;;;0.43;0.43;;;;;;;4.34;93.94;97038.56;6157565;23;20017;-64
2023/03/01 04:45:31;;;;;;;0.50;0.50;;;;;;;4.30;93.87;97040.31;6157848;23;20112;-64
2023/03/01 04:47:58;;;;;;;0.40;0.40;;;;;;;4.29;93.71;97047.22;6158009;23;20400;-64
2023/03/01 04:50:25;;;;;;;0.45;0.45;;;;;;;4.35;93.88;97048.94;6158065;23;20084;-63
2023/03/01 04:52:58;;;;;;;0.40;0.40;;;;;;;4.39;94.24;97035.09;6157555;23;20351;-63
2023/03/01 04:55:26;;;;;;;0.40;0.40;;;;;;;4.36;94.04;97031.66;6157518;23;20392;-63
2023/03/01 04:57:53;;;;;;;2.05;0.50;;;;;;;4.35;93.67;97032.50;6157428;23;20053;-64
2023/03/01 05:00:21;;;;;;;0.50;0.50;;;;;;;4.34;93.93;97033.38;6157852;23;20021;-63
2023/03/01 05:02:53;;;;;;;0.40;0.40;;;;;;;4.27;94.14;97035.13;6157392;23;20096;-63
2023/03/01 05:05:25;;;;;;;0.40;0.40;;;;;;;4.32;94.30;97040.28;6157617;23;20507;-63
2023/03/01 05:07:59;;;;;;;0.50;0.50;;;;;;;4.32;94.04;97042.88;6157761;23;20028;-62
2023/03/01 05:10:28;;;;;;;0.50;0.50;;;;;;;4.30;93.80;97040.31;6157126;23;20022;-63
2023/03/01 05:12:57;;;;;;;0.47;0.47;;;;;;;4.33;93.16;97044.63;6157316;23;20088;-62
2023/03/01 05:15:25;;;;;;;0.40;0.40;;;;;;;4.28;93.54;97037.72;6157192;23;20060;-63
2023/03/01 05:17:53;;;;;;;0.80;0.60;;;;;;;4.27;93.42;97043.78;6157256;23;20404;-63
2023/03/01 05:20:23;;;;;;;0.60;0.60;;;;;;;4.27;93.85;97046.38;6157256;23;20105;-64
2023/03/01 05:22:51;;;;;;;1.42;1.33;;;;;;;4.23;94.25;97044.66;6157272;23;20028;-62
2023/03/01 05:25:21;;;;;;;0.70;0.70;;;;;;;4.24;94.90;97038.59;6157015;23;20068;-63
2023/03/01 05:27:48;;;;;;;1.10;0.50;;;;;;;4.26;94.64;97049.84;6157454;23;20049;-62
2023/03/01 05:30:17;;;;;;;3.38;0.80;;;;;;;4.32;93.75;97045.47;6157552;23;20022;-63
2023/03/01 05:32:46;;;;;;;1.38;0.85;;;;;;;4.27;93.75;97040.31;6157220;23;20068;-62
2023/03/01 05:35:15;;;;;;;0.70;0.70;;;;;;;4.28;94.14;97045.50;6157200;23;20022;-64
2023/03/01 05:37:43;;;;;;;1.13;0.82;;;;;;;4.30;94.45;97045.47;6157347;23;20452;-62
2023/03/01 05:40:15;;;;;;;0.70;0.70;;;;;;;4.30;94.37;97048.06;6157496;23;20021;-63
2023/03/01 05:42:45;;;;;;;2.25;0.73;;;;;;;4.28;93.96;97050.66;6157058;23;20028;-63
2023/03/01 05:45:14;;;;;;;0.90;0.90;;;;;;;4.31;94.53;97047.22;6157560;23;20025;-63
2023/03/01 05:47:44;;;;;;;3.65;1.02;;;;;;;4.33;94.40;97053.25;6157179;23;20088;-64
2023/03/01 05:50:18;;;;;;;5.00;0.90;;;;;;;4.36;94.42;97047.22;6156572;23;20021;-62
2023/03/01 05:52:48;;;;;;;1.25;0.82;;;;;;;4.43;93.81;97054.91;6157360;23;20018;-64
2023/03/01 05:55:16;;;;;;;1.63;0.82;;;;;;;4.50;93.40;97048.00;6156962;23;20022;-64
2023/03/01 05:57:45;;;;;;;2.22;0.85;;;;;;;4.49;93.55;97050.59;6157398;23;20093;-63
2023/03/01 06:00:14;;;;;;;6.15;1.45;;;;;;;4.54;93.42;97057.47;6156889;23;20025;-64
2023/03/01 06:02:42;;;;;;;2.00;0.93;;;;;;;4.58;93.19;97058.31;6157286;23;20029;-63
2023/03/01 06:05:11;;;;;;;1.45;1.17;;;;;;;4.62;92.17;97047.06;6157064;23;20026;-62
2023/03/01 06:07:39;;;;;;;2.45;1.33;;;;;;;4.63;92.95;97055.66;6156810;23;20395;-63
2023/03/01 06:10:08;;;;;;;4.45;1.20;;;;;;;4.58;92.89;97058.31;6156696;23;20022;-63
2023/03/01 06:12:37;;;;;;;2.90;1.20;;;;;;;4.58;92.32;97052.25;6156824;23;20561;-64
2023/03/01 06:15:09;;;;;;;1.95;1.15;;;;;;;4.64;93.06;97047.03;6156657;23;20022;-64
2023/03/01 06:17:41;;;;;;;2.97;1.17;;;;;;;4.62;92.00;97048.78;6156507;23;20092;-62
2023/03/01 06:20:11;;;;;;;2.15;1.27;;;;;;;4.54;92.89;97052.28;6156772;23;20031;-63
2023/03/01 06:22:42;;;;;;;1.13;1.02;;;;;;;4.58;93.17;97036.72;6156663;23;20025;-63
2023/03/01 06:25:10;;;;;;;2.85;1.30;;;;;;;4.63;93.52;97066.91;6156631;23;20033;-63
2023/03/01 06:27:38;;;;;;;2.63;1.20;;;;;;;4.66;92.85;97064.31;6156705;23;20057;-63
2023/03/01 06:30:13;;;;;;;2.90;0.98;;;;;;;4.67;91.67;97070.34;6157037;23;20091;-63
2023/03/01 06:32:43;;;;;;;2.78;0.95;;;;;;;4.64;92.10;97071.22;6156621;23;20025;-62
2023/03/01 06:35:12;;;;;;;2.38;0.90;;;;;;;4.71;92.42;97072.06;6156616;23;20417;-63
2023/03/01 06:37:39;;;;;;;1.50;1.13;;;;;;;4.79;90.99;97070.25;6156859;23;20064;-63
2023/03/01 06:40:10;;;;;;;1.55;0.93;;;;;;;4.74;90.27;97065.97;6156635;23;20022;-63
2023/03/01 06:42:39;;;;;;;2.33;1.15;;;;;;;4.70;91.74;97070.34;6156948;23;20018;-63
2023/03/01 06:45:10;;;;;;;3.25;1.30;;;;;;;4.60;91.70;97066.91;6156422;23;20018;-63
2023/03/01 06:47:38;;;;;;;1.52;0.88;;;;;;;4.62;92.25;97062.59;6156473;23;20096;-64
2023/03/01 06:50:06;;;;;;;5.70;1.67;;;;;;;4.64;92.14;97070.38;6156345;23;20053;-63
2023/03/01 06:52:33;;;;;;;1.35;1.23;;;;;;;4.57;92.00;97068.69;6156767;23;20029;-64
2023/03/01 06:55:01;;;;;;;1.30;1.10;;;;;;;4.53;92.61;97066.13;6156343;23;20025;-64
2023/03/01 06:57:29;;;;;;;2.75;1.20;;;;;;;4.54;93.41;97060.06;6156294;23;20080;-63
2023/03/01 06:59:57;;;;;;;4.93;1.50;;;;;;;4.57;93.97;97061.75;6156324;23;20022;-64
2023/03/01 07:02:25;;;;;;;1.50;1.40;;;;;;;4.63;93.68;97072.09;6156129;23;20026;-63
2023/03/01 07:04:53;;;;;;;3.13;1.70;;;;;;;4.57;92.94;97063.50;6156708;23;20025;-64
2023/03/01 07:07:21;;;;;;;4.22;1.88;;;;;;;4.55;93.00;97063.50;6156715;23;20017;-63
2023/03/01 07:09:49;;;;;;;7.25;1.80;;;;;;;4.51;93.08;97059.19;6156263;23;20129;-63
2023/03/01 07:12:17;;;;;;;3.42;1.77;;;;;;;4.48;93.71;97057.47;6156322;23;20021;-62
2023/03/01 07:14:45;;;;;;;1.40;1.30;;;;;;;4.50;93.11;97055.75;6156159;23;20473;-63
2023/03/01 07:17:13;;;;;;;1.95;1.63;;;;;;;4.52;93.39;97056.59;6156257;23;20029;-63
2023/03/01 07:19:41;;;;;;;2.08;1.65;;;;;;;4.54;93.42;97057.47;6156324;23;20181;-63
2023/03/01 07:22:09;;;;;;;5.57;1.73;;;;;;;4.60;92.98;97066.91;6156507;23;20040;-63
2023/03/01 07:24:36;;;;;;;1.33;1.23;;;;;;;4.67;93.59;97071.19;6156054;23;20403;-64
2023/03/01 07:27:03;;;;;;;3.22;1.60;;;;;;;4.73;92.81;97078.06;6155996;23;20021;-64
2023/03/01 07:29:31;;;;;;;5.53;2.00;;;;;;;4.66;91.25;97071.19;6156036;23;20024;-62
2023/03/01 07:31:59;;;;;;;2.60;1.73;;;;;;;4.68;92.34;97066.88;6156141;23;20018;-62
2023/03/01 07:34:26;;;;;;;2.42;2.00;;;;;;;4.73;92.99;97064.28;6156147;23;20105;-64
2023/03/01 07:36:55;;;;;;;3.80;1.90;;;;;;;4.78;93.18;97060.78;6156146;23;20026;-63
2023/03/01 07:39:23;;;;;;;6.78;2.00;;;;;;;4.92;93.31;97060.69;6156150;23;20072;-64
2023/03/01 07:41:51;;;;;;;4.35;1.65;;;;;;;4.93;90.85;97061.53;6155990;23;20058;-62
2023/03/01 07:44:18;;;;;;;2.17;1.80;;;;;;;4.95;89.51;97059.81;6156402;23;20044;-64
2023/03/01 07:46:46;;;;;;;1.88;1.50;;;;;;;4.92;89.21;97060.69;6156249;23;20029;-63
2023/03/01 07:49:13;;;;;;;3.35;1.65;;;;;;;4.92;89.41;97065.88;6156182;23;20055;-63
2023/03/01 07:51:40;;;;;;;3.72;1.73;;;;;;;4.90;89.46;97049.44;6155921;23;20391;-63
2023/03/01 07:54:09;;;;;;;2.05;1.80;;;;;;;4.88;89.22;97058.97;6156066;23;20490;-63
2023/03/01 07:56:36;;;;;;;3.40;2.10;;;;;;;4.87;88.55;97052.06;6155930;23;20096;-62
2023/03/01 07:59:04;;;;;;;3.85;1.70;;;;;;;4.89;89.40;97052.94;6155877;23;20017;-64
2023/03/01 08:01:31;;;;;;;5.65;2.03;;;;;;;5.03;90.40;97054.56;6155985;23;20360;-64
2023/03/01 08:03:59;;;;;;;2.17;1.55;;;;;;;5.17;89.70;97062.22;6156325;23;20017;-63
2023/03/01 08:06:26;;;;;;;1.80;1.60;;;;;;;5.27;88.79;97056.06;6156297;23;20037;-64
2023/03/01 08:08:55;;;;;;;2.50;1.67;;;;;;;5.28;87.46;97059.53;6156216;23;20068;-63
2023/03/01 08:11:24;;;;;;;3.70;1.52;;;;;;;5.28;88.39;97052.63;6155936;23;20097;-62
2023/03/01 08:13:54;;;;;;;2.40;1.55;;;;;;;5.28;87.52;97052.63;6156442;23;20018;-64
2023/03/01 08:16:22;;;;;;;1.90;1.38;;;;;;;5.30;88.07;97058.66;6157667;23;20468;-63
2023/03/01 08:18:50;;;;;;;2.45;1.73;;;;;;;5.29;88.12;97056.06;6157856;23;20029;-64
2023/03/01 08:21:19;;;;;;;2.25;1.50;;;;;;;5.39;88.09;97049.91;6157828;23;20025;-63
2023/03/01 08:23:46;;;;;;;3.05;1.85;;;;;;;5.44;87.46;97055.94;6157801;23;20021;-63
2023/03/01 08:26:15;;;;;;;4.18;2.17;;;;;;;5.41;87.36;97049.91;6157725;23;20026;-64
2023/03/01 08:28:44;;;;;;;4.70;1.55;;;;;;;5.41;87.11;97050.78;6158071;23;20399;-63
2023/03/01 08:31:18;;;;;;;2.38;1.55;;;;;;;5.42;87.02;97055.09;6157722;23;20022;-64
2023/03/01 08:33:50;;;;;;;4.55;1.58;;;;;;;5.43;86.80;97050.75;6157566;23;20018;-63
2023/03/01 08:36:19;;;;;;;3.03;1.90;;;;;;;5.47;87.10;97055.03;6157571;23;20531;-64
2023/03/01 08:38:46;;;;;;;2.33;1.65;;;;;;;5.49;86.67;97048.13;6157994;23;20068;-63
2023/03/01 08:41:14;;;;;;;2.10;1.83;;;;;;;5.45;86.17;97046.44;6158047;23;20048;-64
2023/03/01 08:43:44;;;;;;;2.95;1.90;;;;;;;5.42;87.56;97046.47;6157609;23;20519;-64
2023/03/01 08:46:12;;;;;;;1.80;1.42;;;;;;;5.41;86.75;97053.38;6158035;23;20032;-63
2023/03/01 08:48:42;;;;;;;2.60;2.08;;;;;;;5.35;87.52;97055.16;6157662;23;20072;-63
2023/03/01 08:51:12;;;;;;;3.15;1.95;;;;;;;5.41;88.18;97055.97;6157453;23;20395;-64
2023/03/01 08:53:40;;;;;;;2.85;2.30;;;;;;;5.41;87.86;97055.97;6157900;23;20380;-63
2023/03/01 08:56:08;;;;;;;3.50;2.10;;;;;;;5.47;88.43;97054.16;6157455;23;20029;-63
2023/03/01 08:58:35;;;;;;;2.50;2.25;;;;;;;5.47;89.15;97055.03;6157401;23;20025;-64
2023/03/01 09:01:08;;;;;;;3.60;2.50;;;;;;;5.50;88.18;97054.16;6157531;23;20476;-64
2023/03/01 09:03:35;;;;;;;3.55;1.80;;;;;;;5.60;87.52;97053.19;6157769;23;20025;-63
2023/03/01 09:06:04;;;;;;;2.35;2.03;;;;;;;5.62;87.23;97055.75;6157500;23;20408;-63
2023/03/01 09:08:35;;;;;;;4.82;2.10;;;;;;;5.58;86.80;97054.94;6157486;23;20022;-63
2023/03/01 09:11:03;;;;;;;3.15;2.03;;;;;;;5.56;87.36;97061.88;6157532;23;20092;-62
2023/03/01 09:13:31;;;;;;;3.47;2.40;;;;;;;5.58;87.84;97060.13;6157785;23;20092;-64
2023/03/01 09:15:59;;;;;;;2.97;2.10;;;;;;;5.62;87.39;97054.03;6157813;23;20018;-63
2023/03/01 09:18:28;;;;;;;3.10;1.88;;;;;;;5.65;87.41;97061.81;6158050;23;20022;-63
2023/03/01 09:21:02;;;;;;;2.75;2.25;;;;;;;5.63;88.02;97058.34;6157440;23;20026;-63
2023/03/01 09:23:29;;;;;;;3.20;2.17;;;;;;;5.57;87.49;97048.88;6157159;23;20022;-64
2023/03/01 09:25:57;;;;;;;3.85;2.28;;;;;;;5.55;87.82;97053.25;6157302;23;20153;-64
2023/03/01 09:28:24;;;;;;;2.38;2.15;;;;;;;5.47;87.79;97052.44;6157217;23;20069;-62
2023/03/01 09:30:51;;;;;;;4.97;2.38;;;;;;;5.31;88.44;97050.00;6157049;23;20463;-63
2023/03/01 09:33:18;;;;;;;5.40;2.13;;;;;;;5.28;89.11;97050.03;6157138;23;20021;-63
2023/03/01 09:35:47;;;;;;;3.22;2.30;;;;;;;5.25;90.13;97047.47;6157034;23;20049;-63
2023/03/01 09:38:15;;;;;;;2.47;2.10;;;;;;;5.26;89.71;97046.59;6157047;23;20024;-63
2023/03/01 09:40:46;;;;;;;2.65;2.20;;;;;;;5.34;89.76;97048.25;6157117;23;20049;-63
2023/03/01 09:43:24;;;;;;;3.25;2.08;;;;;;;5.33;89.38;97054.31;6156916;23;20021;-64
2023/03/01 09:45:54;;;;;;;2.58;2.10;;;;;;;5.28;89.76;97050.03;6157006;23;20072;-63
2023/03/01 09:48:27;;;;;;;4.63;2.75;;;;;;;5.26;90.30;97044.00;6157453;23;20088;-64
2023/03/01 09:50:57;;;;;;;2.83;2.30;;;;;;;5.18;88.96;97041.44;6157335;23;20021;-65
2023/03/01 09:53:33;;;;;;;2.72;2.08;;;;;;;5.19;90.69;97042.31;6156951;23;20017;-63
2023/03/01 09:56:03;;;;;;;5.20;2.78;;;;;;;5.15;90.54;97035.44;6156838;23;20026;-63
2023/03/01 09:58:44;;;;;;;3.03;2.58;;;;;;;5.00;91.07;97033.84;6157140;23;20043;-63
2023/03/01 10:01:25;;;;;;;3.00;2.38;;;;;;;4.98;91.59;97030.38;6156951;23;20096;-63
2023/03/01 10:04:11;;;;;;;4.50;3.00;;;;;;;4.96;92.46;97035.59;6156812;23;20025;-62
2023/03/01 10:06:44;;;;;;;6.22;2.45;;;;;;;4.91;92.01;97034.78;6156825;23;20448;-64
2023/03/01 10:09:15;;;;;;;5.55;3.15;;;;;;;4.96;92.83;97021.78;6156908;23;20053;-63
2023/03/01 10:11:47;;;;;;;3.38;2.50;;;;;;;5.02;92.68;97034.66;6156798;23;20078;-63
2023/03/01 10:14:25;;;;;;;4.20;2.55;;;;;;;5.02;91.87;97029.47;6157102;23;20025;-63
2023/03/01 10:16:57;;;;;;;6.00;2.83;;;;;;;5.06;91.63;97041.56;6156725;23;20033;-63
2023/03/01 10:19:31;;;;;;;4.75;3.20;;;;;;;5.12;91.95;97033.72;6156839;23;20026;-63
2023/03/01 10:22:10;;;;;;;4.53;2.50;;;;;;;5.18;91.66;97033.66;6156635;23;20022;-64
2023/03/01 10:24:38;;;;;;;2.97;2.55;;;;;;;5.24;90.85;97024.97;6157193;23;20024;-63
2023/03/01 10:27:09;;;;;;;4.45;2.70;;;;;;;5.26;90.15;97018.03;6156541;23;20026;-64
2023/03/01 10:29:43;;;;;;;6.90;3.75;;;;;;;5.33;89.92;97016.28;6156688;23;20096;-64
2023/03/01 10:32:11;;;;;;;6.28;2.65;;;;;;;5.44;89.33;97013.56;6156734;23;20022;-63
2023/03/01 10:34:39;;;;;;;3.95;2.60;;;;;;;5.48;88.97;97004.84;6156993;23;20064;-63
2023/03/01 10:37:14;;;;;;;3.60;2.38;;;;;;;5.54;89.27;97014.34;6156232;23;20452;-63
2023/03/01 10:40:01;;;;;;;5.10;2.67;;;;;;;5.55;89.18;97011.72;6156989;23;20092;-63
2023/03/01 10:42:31;;;;;;;4.85;3.00;;;;;;;5.61;89.23;97002.13;6156550;23;20032;-63
2023/03/01 10:44:58;;;;;;;4.05;3.08;;;;;;;5.70;88.70;96999.44;6156868;23;20018;-64
2023/03/01 10:47:28;;;;;;;3.30;2.75;;;;;;;5.71;89.37;97001.16;6156353;23;20029;-63
2023/03/01 10:49:59;;;;;;;6.35;3.28;;;;;;;5.65;87.76;96993.44;6156436;23;20026;-63
2023/03/01 10:52:31;;;;;;;4.93;3.13;;;;;;;5.59;87.73;96989.19;6156758;23;20021;-64
2023/03/01 10:55:00;;;;;;;5.38;3.17;;;;;;;5.43;88.09;96986.75;6156303;23;20053;-64
2023/03/01 10:57:40;;;;;;;3.78;2.80;;;;;;;5.35;88.33;96996.34;6156311;23;20021;-63
2023/03/01 11:00:25;;;;;;;4.50;2.37;;;;;;;5.31;88.83;96992.94;6156370;23;20025;-63
2023/03/01 11:03:04;;;;;;;3.97;2.45;;;;;;;5.20;89.24;96989.56;6156344;23;20021;-64
2023/03/01 11:05:35;;;;;;;4.72;2.85;;;;;;;5.17;90.00;96984.41;6156347;23;20476;-63
2023/03/01 11:08:05;;;;;;;3.75;2.65;;;;;;;5.09;90.33;96987.06;6156039;23;20104;-63
2023/03/01 11:10:36;;;;;;;3.38;2.58;;;;;;;5.08;90.50;96979.31;6156311;23;20022;-64
2023/03/01 11:13:16;;;;;;;3.88;3.10;;;;;;;5.03;91.27;96984.53;6156052;23;20021;-64
2023/03/01 11:15:44;;;;;;;21.85;4.22;;;;;;;5.12;91.64;96983.59;6156250;23;20034;-63
2023/03/01 11:18:21;;;;;;;3.35;2.78;;;;;;;5.23;91.39;96983.47;6156433;23;20029;-63
2023/03/01 11:20:52;;;;;;;3.97;3.03;;;;;;;5.36;91.61;96976.44;6155968;23;20052;-63
2023/03/01 11:23:22;;;;;;;4.68;3.05;;;;;;;5.47;91.65;96979.78;6156228;23;20021;-63
2023/03/01 11:25:55;;;;;;;3.53;3.15;;;;;;;5.53;90.82;96969.34;6156139;23;20471;-64
2023/03/01 11:28:23;;;;;;;4.20;3.25;;;;;;;5.51;89.13;96965.91;6156385;23;20021;-64
2023/03/01 11:30:55;;;;;;;4.22;3.00;;;;;;;5.51;89.72;96973.69;6156374;23;20052;-64
2023/03/01 11:33:35;;;;;;;5.93;3.78;;;;;;;5.60;90.05;96974.47;6156104;23;20089;-64
2023/03/01 11:36:08;;;;;;;5.40;2.72;;;;;;;5.71;90.36;96967.41;6156293;23;20025;-64
2023/03/01 11:38:40;;;;;;;5.55;3.45;;;;;;;5.79;90.86;96965.59;6156488;23;20017;-63
2023/03/01 11:41:09;;;;;;;5.32;4.10;;;;;;;5.70;90.79;96963.09;6156001;23;20356;-64
2023/03/01 11:43:47;;;;;;;3.75;3.15;;;;;;;5.70;91.42;96963.09;6156042;23;20045;-64
2023/03/01 11:46:41;;;;;;;6.20;4.35;;;;;;;5.75;91.25;96956.09;6155863;23;20021;-64
2023/03/01 11:49:39;;;;;;;5.28;3.90;;;;;;;5.75;91.61;96950.06;6155994;23;20018;-64
2023/03/01 11:52:18;;;;;;;6.30;3.05;;;;;;;5.73;90.36;96944.91;6156034;23;20097;-63
2023/03/01 11:54:58;;;;;;;4.38;3.25;;;;;;;5.67;89.88;96944.97;6156009;23;20018;-64
2023/03/01 11:57:44;;;;;;;3.47;3.10;;;;;;;5.61;89.65;96935.53;6156285;23;20388;-64
2023/03/01 12:00:27;;;;;;;5.47;4.05;;;;;;;5.58;89.24;96940.75;6155984;23;20021;-62
2023/03/01 12:03:15;;;;;;;4.95;3.67;;;;;;;5.60;90.11;96940.72;6155897;23;20021;-63
2023/03/01 12:06:23;;;;;;;5.40;3.90;;;;;;;5.52;89.67;96933.91;6156125;23;20018;-64